• Join FlightAware (Why Join?)
  • Login
  • US Flag 
06:17PM EDT


 

Airport Tracker/Info


-or-


 

Live Flight TrackerFlight Track Log ✈ AFR6725 ✈ 11-May-2013 ✈ MMMX / MEX - KIAH

Flight Track Log - Related Links

Times and Time Zones

All times are in EDT time to prevent confusion due to time zone crossing. See the AFR6725 flight status page for this flight to view local times or setup timezone preferences in your user account.

Time Position Orientation Groundspeed Altitude Reporting Facility
EDT Latitude Longitude Course Direction KTS MPH feet Rate Location/Type
04:26AM 24.8950 -97.2570 12° North 509 586 41,000  Level FlightAware
04:27AM 25.0000 -97.2320 12° North 509 586 41,000  Level FlightAware
04:27AM 25.0920 -97.2100 12° North 506 582 41,000  Level FlightAware
04:28AM 25.1920 -97.1860 12° North 505 581 41,000  Level FlightAware
04:29AM 25.2850 -97.1640 12° North 506 582 41,000  Level FlightAware
04:29AM 25.3680 -97.1440 12° North 506 582 41,000  Level FlightAware
04:30AM 25.4810 -97.1170 12° North 507 583 41,000  Level FlightAware
04:31AM 25.5730 -97.0950 12° North 506 582 41,000  Level FlightAware
04:31AM 25.6730 -97.0730 11° North 505 581 41,000  Level FlightAware
04:32AM 25.7670 -97.0520 11° North 506 582 41,000  Level FlightAware
04:33AM 25.8590 -97.0320 11° North 508 585 41,000  Level FlightAware
04:34AM 25.9640 -97.0080 12° North 508 585 41,000  Level FlightAware
04:34AM 26.0550 -96.9870 12° North 512 589 41,000  Level FlightAware
04:35AM 26.1560 -96.9620 13° North 514 592 41,000  Level FlightAware
04:36AM 26.2530 -96.9380 13° North 515 593 41,000  Level FlightAware
04:36AM 26.2678 -96.9344 12° North 516 594 41,000  Level FlightAware ADS-B
04:36AM 26.3580 -96.9120 13° North 514 592 41,000  Level FlightAware
04:36AM 26.3672 -96.9099 12° North 514 592 41,000  Level FlightAware ADS-B
04:37AM 26.4396 -96.8920 12° North 514 592 41,000  Level FlightAware ADS-B
04:37AM 26.5099 -96.8749 12° North 511 588 41,000  Level FlightAware ADS-B
04:38AM 26.5816 -96.8572 12° North 509 586 41,000  Level FlightAware ADS-B
04:38AM 26.6516 -96.8397 13° North 509 586 41,000  Level FlightAware ADS-B
04:39AM 26.7217 -96.8224 12° North 509 586 41,000  Level FlightAware ADS-B
04:39AM 26.7921 -96.8044 13° North 514 592 41,000  Level FlightAware ADS-B
04:40AM 26.8385 -96.7898 16° North 521 600 41,000  Level FlightAware ADS-B
04:40AM 26.9080 -96.7632 19° North 528 608 41,000  Level FlightAware ADS-B
04:41AM 26.9782 -96.7334 21° North 531 611 41,000  Level FlightAware ADS-B
04:41AM 27.0562 -96.6988 22° Northeast 535 616 41,000  Level FlightAware ADS-B
04:42AM 27.1257 -96.6676 22° Northeast 538 619 41,000  Level FlightAware ADS-B
04:42AM 27.1955 -96.6361 22° Northeast 542 624 41,000  Level FlightAware ADS-B
04:43AM 27.2671 -96.6035 22° Northeast 544 626 41,000  Level FlightAware ADS-B
04:43AM 27.3382 -96.5711 22° Northeast 543 625 41,000  Level FlightAware ADS-B
04:44AM 27.4091 -96.5385 22° Northeast 542 624 41,000  Level FlightAware ADS-B
04:44AM 27.4826 -96.5048 22° Northeast 542 624 41,000  Level FlightAware ADS-B
04:45AM 27.5522 -96.4729 22° Northeast 533 613 41,000  Level FlightAware ADS-B
04:45AM 27.6210 -96.4421 22° Northeast 526 605 41,000  Level FlightAware ADS-B
04:46AM 27.6902 -96.4108 22° Northeast 526 605 41,000 -540 Level FlightAware ADS-B
04:46AM 27.7581 -96.3791 22° Northeast 527 606 40,500 -1,140 Descending FlightAware ADS-B
04:47AM 27.8264 -96.3476 22° Northeast 527 606 39,900 -1,200 Descending FlightAware ADS-B
04:47AM 27.8954 -96.3158 22° Northeast 528 608 39,300 -1,200 Descending FlightAware ADS-B
04:48AM 27.9522 -96.2901 22° Northeast 526 605 38,800 -1,560 Descending FlightAware ADS-B
04:48AM 28.0201 -96.2594 22° Northeast 524 603 37,900 -2,220 Descending FlightAware ADS-B
04:49AM 28.0888 -96.2277 22° Northeast 528 608 36,600 -2,520 Descending FlightAware ADS-B
04:49AM 28.1565 -96.1955 23° Northeast 530 610 35,400 -1,980 Descending FlightAware ADS-B
04:50AM 28.2247 -96.1630 23° Northeast 519 597 34,600 -1,620 Descending FlightAware ADS-B
04:50AM 28.2919 -96.1315 22° Northeast 513 590 33,800 -2,040 Descending FlightAware ADS-B
04:51AM 28.3579 -96.1009 22° Northeast 512 589 32,600 -2,280 Descending FlightAware ADS-B
04:51AM 28.4240 -96.0704 22° Northeast 512 589 31,500 -2,220 Descending FlightAware ADS-B
04:52AM 28.4898 -96.0399 22° Northeast 509 586 30,400 -2,340 Descending FlightAware ADS-B
04:52AM 28.5557 -96.0094 22° Northeast 504 580 29,200 -2,460 Descending FlightAware ADS-B
04:53AM 28.6077 -95.9853 22° Northeast 499 574 28,200 -2,100 Descending FlightAware ADS-B
04:53AM 28.6547 -95.9670 19° North 488 562 27,600 -1,680 Descending FlightAware ADS-B
04:53AM 28.6864 -95.9569 16° North 479 551 27,200 -1,680 Descending FlightAware ADS-B
04:54AM 28.7331 -95.9452 12° North 469 540 26,600 -1,740 Descending FlightAware ADS-B
04:54AM 28.7980 -95.9321 10° North 464 534 25,700 -2,100 Descending FlightAware ADS-B
04:55AM 28.8627 -95.9195 10° North 465 535 24,500 -2,340 Descending FlightAware ADS-B
04:55AM 28.9266 -95.9068 10° North 463 533 23,400 -2,100 Descending FlightAware ADS-B
04:56AM 28.9901 -95.8939 10° North 456 525 22,400 -2,100 Descending FlightAware ADS-B
04:56AM 29.0526 -95.8809 10° North 445 512 21,300 -2,520 Descending FlightAware ADS-B
04:57AM 29.1134 -95.8682 10° North 435 501 19,900 -2,520 Descending FlightAware ADS-B
04:57AM 29.1740 -95.8560 10° North 424 488 18,700 -2,280 Descending FlightAware
04:57AM 29.1803 -95.8542 14° North 422 486 18,600 -2,400 Descending FlightAware ADS-B
04:58AM 29.2480 -95.8400 10° North 407 468 17,100 -2,400 Descending FlightAware
04:58AM 29.2798 -95.8333 10° North 402 463 16,500 -2,280 Descending FlightAware ADS-B
04:59AM 29.3683 -95.8148 10° North 399 459 14,700 -2,400 Descending FlightAware ADS-B
05:00AM 29.4255 -95.8029 10° North 373 429 13,300 -2,280 Descending FlightAware ADS-B
05:00AM 29.4766 -95.7922 10° North 363 418 12,300 -1,620 Descending FlightAware ADS-B
05:01AM 29.5420 -95.7780 11° North 344 396 11,400 -1,260 Descending FlightAware
05:01AM 29.5551 -95.7756 North 359 413 11,300 -840 Descending FlightAware ADS-B
05:01AM 29.6002 -95.7654 11° North 320 368 10,900 -720 Descending FlightAware ADS-B
05:02AM 29.6441 -95.7563 10° North 297 342 10,600 -780 Descending FlightAware ADS-B
05:03AM 29.6843 -95.7479 10° North 283 326 10,100 -1,200 Descending FlightAware ADS-B
05:03AM 29.7039 -95.7437 11° North 286 329 9,700 -1,380 Descending FlightAware ADS-B
05:03AM 29.7237 -95.7397 10° North 286 329 9,400 -1,200 Descending FlightAware ADS-B
05:03AM 29.7437 -95.7355 10° North 283 326 9,100 -1,380 Descending FlightAware ADS-B
05:03AM 29.7598 -95.7322 10° North 282 325 8,800 -1,500 Descending FlightAware ADS-B
05:04AM 29.7793 -95.7278 11° North 284 327 8,400 -1,260 Descending FlightAware ADS-B
05:04AM 29.7960 -95.7238 12° North 282 325 8,200 -1,140 Descending FlightAware ADS-B
05:04AM 29.8148 -95.7193 12° North 276 318 7,900 -1,200 Descending FlightAware ADS-B
05:04AM 29.8347 -95.7153 10° North 273 314 7,600 -1,140 Descending FlightAware ADS-B
05:05AM 29.8547 -95.7113 10° North 270 311 7,300 -1,140 Descending FlightAware ADS-B
05:05AM 29.8737 -95.7074 10° North 267 307 7,000 -1,440 Descending FlightAware ADS-B
05:05AM 29.8876 -95.7045 10° North 268 308 6,700 -1,500 Descending FlightAware ADS-B
05:05AM 29.9089 -95.7005 North 268 308 6,300 -1,380 Descending FlightAware ADS-B
05:06AM 29.9309 -95.6962 10° North 269 310 5,900 -1,380 Descending FlightAware ADS-B
05:06AM 29.9365 -95.6947 13° North 271 312 5,800 -1,380 Descending FlightAware ADS-B
05:06AM 29.9420 -95.6927 17° North 272 313 5,700 -1,380 Descending FlightAware ADS-B
05:06AM 29.9467 -95.6903 24° Northeast 273 314 5,600 -1,500 Descending FlightAware ADS-B
05:06AM 29.9513 -95.6871 31° Northeast 277 319 5,500 -1,800 Descending FlightAware ADS-B
05:06AM 29.9571 -95.6817 39° Northeast 280 322 5,300 -1,200 Descending FlightAware ADS-B
05:06AM 29.9608 -95.6773 46° Northeast 280 322 5,300 -720 Level FlightAware ADS-B
05:06AM 29.9646 -95.6716 52° Northeast 279 321 5,200 -1,380 Descending FlightAware ADS-B
05:06AM 29.9673 -95.6666 58° Northeast 278 320 5,100 -1,380 Descending FlightAware ADS-B
05:06AM 29.9701 -95.6601 64° Northeast 278 320 5,000 -1,380 Descending FlightAware ADS-B
05:07AM 29.9790 -95.6369 66° East 264 304 4,600 -900 Descending FlightAware ADS-B
05:07AM 29.9868 -95.6161 67° East 241 277 4,500 -600 Descending FlightAware ADS-B
05:07AM 29.9879 -95.6124 71° East 239 275 4,400 -1,020 Descending FlightAware ADS-B
05:07AM 29.9903 -95.6014 76° East 236 272 4,300 -960 Descending FlightAware ADS-B
05:07AM 29.9922 -95.5884 80° East 229 264 4,100 -1,200 Descending FlightAware ADS-B
05:07AM 29.9927 -95.5836 83° East 227 261 4,000 -1,440 Descending FlightAware ADS-B
05:08AM 29.9932 -95.5722 87° East 226 260 3,800 -1,440 Descending FlightAware ADS-B
05:08AM 29.9931 -95.5524 90° East 219 252 3,400 -1,320 Descending FlightAware ADS-B
05:08AM 29.9930 -95.5344 90° East 211 243 3,100 -1,380 Descending FlightAware ADS-B
05:09AM 29.9929 -95.5121 90° East 207 238 2,600 -1,200 Descending FlightAware ADS-B
05:09AM 29.9930 -95.5013 89° East 199 229 2,500 -900 Descending FlightAware ADS-B
05:09AM 29.9932 -95.4903 89° East 195 224 2,300 -1,140 Descending FlightAware ADS-B
05:09AM 29.9933 -95.4736 90° East 190 219 2,000 -900 Descending FlightAware ADS-B
05:09AM 29.9933 -95.4628 90° East 181 208 1,900 -960 Descending FlightAware ADS-B
05:10AM 29.9933 -95.4483 90° East 174 200 1,600 -1,080 Descending FlightAware ADS-B
05:10AM 29.9933 -95.4314 90° East 161 185 1,300 -720 Descending FlightAware ADS-B
05:10AM 29.9933 -95.4171 90° East 150 173 1,200 -720 Descending FlightAware ADS-B
05:10AM 29.9934 -95.4102 89° East 152 175 1,000 -1,080 Descending FlightAware ADS-B
05:11AM 29.9933 -95.3983 91° East 151 174 800 -840 Descending FlightAware ADS-B
05:11AM 29.9934 -95.3856 89° East 152 175 600 -840 Descending FlightAware ADS-B
05:11AM 29.9934 -95.3744 90° East 150 173 400 -780 Descending FlightAware ADS-B
05:11AM 29.9935 -95.3607 90° East 150 173 200 -660 Descending FlightAware ADS-B
05:12AM 29.9934 -95.3523 91° East 150 173 100 -600 Descending FlightAware ADS-B